createdAt,value
2023-03-29T00:02:33.674Z,20.90
2023-03-29T00:07:35.208Z,20.92
2023-03-29T00:12:37.616Z,20.95
2023-03-29T00:17:39.009Z,21.11
2023-03-29T00:22:41.888Z,20.93
2023-03-29T00:27:43.269Z,21.18
2023-03-29T00:32:44.859Z,21.01
2023-03-29T00:37:50.656Z,20.93
2023-03-29T00:42:52.051Z,20.79
2023-03-29T00:47:56.858Z,20.91
2023-03-29T00:53:02.405Z,20.93
2023-03-29T00:58:04.919Z,20.83
2023-03-29T01:03:13.938Z,20.92
2023-03-29T01:08:27.435Z,20.94
2023-03-29T01:13:39.203Z,20.78
2023-03-29T01:18:41.793Z,20.90
2023-03-29T01:23:58.160Z,20.78
2023-03-29T01:29:18.520Z,20.82
2023-03-29T01:34:25.604Z,20.83
2023-03-29T01:39:27.007Z,20.71
2023-03-29T01:44:40.713Z,20.65
2023-03-29T01:49:45.238Z,20.65
2023-03-29T01:54:56.570Z,20.50
2023-03-29T01:59:58.232Z,20.47
2023-03-29T02:04:59.990Z,20.61
2023-03-29T02:10:01.979Z,20.55
2023-03-29T02:15:06.896Z,20.53
2023-03-29T02:20:20.429Z,20.33
2023-03-29T02:25:22.469Z,20.60
2023-03-29T02:30:23.875Z,20.46
2023-03-29T02:35:34.362Z,20.41
2023-03-29T02:40:37.443Z,20.49
2023-03-29T02:45:38.849Z,20.57
2023-03-29T02:50:40.977Z,20.57
2023-03-29T02:55:42.449Z,20.53
2023-03-29T03:00:45.447Z,20.43
2023-03-29T03:05:46.821Z,20.61
2023-03-29T03:10:48.195Z,20.61
2023-03-29T03:15:49.690Z,20.54
2023-03-29T03:20:57.937Z,20.54
2023-03-29T03:25:59.370Z,20.51
2023-03-29T03:31:00.830Z,20.42
2023-03-29T03:36:05.944Z,20.54
2023-03-29T03:41:07.332Z,20.52
2023-03-29T03:46:09.179Z,20.44
2023-03-29T03:51:10.675Z,20.66
2023-03-29T03:56:13.245Z,20.56
2023-03-29T04:01:14.636Z,20.64
2023-03-29T04:06:16.014Z,20.71
2023-03-29T04:11:17.391Z,20.62
2023-03-29T04:16:18.847Z,20.55
2023-03-29T04:21:21.322Z,20.65
2023-03-29T04:26:22.849Z,20.74
2023-03-29T04:31:24.303Z,20.60
2023-03-29T04:36:25.891Z,20.43
2023-03-29T04:41:28.509Z,20.51
2023-03-29T04:46:30.179Z,20.68
2023-03-29T04:51:31.752Z,20.59
2023-03-29T04:56:33.166Z,20.60
2023-03-29T05:01:34.991Z,20.56
2023-03-29T05:06:36.772Z,20.58
2023-03-29T05:11:38.246Z,20.89
2023-03-29T05:16:40.799Z,20.40
2023-03-29T05:21:43.735Z,20.69
2023-03-29T05:26:51.750Z,20.52
2023-03-29T05:31:54.018Z,20.78
2023-03-29T05:36:56.760Z,20.69
2023-03-29T05:41:58.122Z,20.83
2023-03-29T05:46:59.536Z,20.76
2023-03-29T05:52:00.923Z,20.85
2023-03-29T05:57:02.337Z,20.89
2023-03-29T06:02:04.964Z,20.95
2023-03-29T06:07:06.963Z,21.00
2023-03-29T06:12:08.442Z,21.03
2023-03-29T06:17:09.849Z,20.87
2023-03-29T06:22:13.082Z,20.95
2023-03-29T06:27:15.753Z,20.88
2023-03-29T06:32:17.546Z,20.97
2023-03-29T06:37:18.962Z,20.93
2023-03-29T06:42:21.797Z,20.89
2023-03-29T06:47:29.020Z,21.03
2023-03-29T06:52:30.420Z,21.05
2023-03-29T06:57:31.932Z,20.90
2023-03-29T07:02:34.377Z,21.10
2023-03-29T07:07:53.464Z,21.09
2023-03-29T07:12:54.934Z,21.17
2023-03-29T07:17:57.302Z,21.18
2023-03-29T07:22:58.743Z,21.18
2023-03-29T07:28:00.166Z,21.17
2023-03-29T07:33:04.475Z,21.39
2023-03-29T07:38:08.082Z,21.66
2023-03-29T07:43:10.901Z,21.93
2023-03-29T07:48:12.956Z,21.87
2023-03-29T07:53:14.352Z,21.90
2023-03-29T07:58:15.882Z,22.00
2023-03-29T08:03:17.629Z,22.01
2023-03-29T08:08:19.102Z,22.26
2023-03-29T08:13:20.767Z,22.47
2023-03-29T08:18:22.158Z,22.51
2023-03-29T08:23:23.611Z,22.66
2023-03-29T08:28:24.992Z,22.80
2023-03-29T08:33:26.434Z,22.70
2023-03-29T08:38:28.721Z,22.67
2023-03-29T08:43:57.865Z,22.90
2023-03-29T08:49:01.877Z,22.70
2023-03-29T08:54:10.485Z,22.76
2023-03-29T08:59:19.494Z,23.02
2023-03-29T09:04:25.211Z,23.03
2023-03-29T09:09:31.535Z,22.89
2023-03-29T09:15:01.436Z,22.92
2023-03-29T09:20:33.220Z,22.89
2023-03-29T09:25:53.406Z,22.94
2023-03-29T09:31:00.145Z,23.18
2023-03-29T09:36:07.815Z,23.06
2023-03-29T09:41:41.423Z,23.36
2023-03-29T09:46:48.620Z,23.32
2023-03-29T09:51:50.138Z,23.34
2023-03-29T09:56:52.553Z,23.62
2023-03-29T10:01:54.078Z,23.62
2023-03-29T10:06:55.718Z,23.79
2023-03-29T10:11:58.274Z,23.80
2023-03-29T10:16:59.690Z,23.79
2023-03-29T10:22:04.329Z,23.93
2023-03-29T10:27:07.735Z,23.96
2023-03-29T10:32:16.611Z,24.25
2023-03-29T10:37:19.134Z,24.20
2023-03-29T10:42:20.669Z,24.37
2023-03-29T10:47:22.126Z,24.56
2023-03-29T10:52:23.546Z,24.39
2023-03-29T10:57:37.082Z,24.28
2023-03-29T11:03:07.662Z,24.41
2023-03-29T11:08:21.395Z,24.23
2023-03-29T11:13:38.775Z,24.10
2023-03-29T11:18:53.466Z,24.21
2023-03-29T11:24:46.732Z,24.16
2023-03-29T11:30:07.584Z,24.21
2023-03-29T11:35:32.186Z,24.17
2023-03-29T11:40:42.969Z,24.16
2023-03-29T11:46:02.335Z,24.32
2023-03-29T11:51:25.834Z,24.26
2023-03-29T11:56:44.701Z,24.44
2023-03-29T12:01:52.766Z,24.52
2023-03-29T12:07:17.149Z,24.40
2023-03-29T12:12:21.601Z,24.65
2023-03-29T12:17:28.050Z,24.64
2023-03-29T12:22:29.450Z,24.55
2023-03-29T12:28:04.894Z,24.51
2023-03-29T12:33:16.832Z,24.91
2023-03-29T12:38:29.398Z,24.96
2023-03-29T12:43:33.081Z,24.87
2023-03-29T12:48:34.679Z,24.92
2023-03-29T12:53:40.835Z,25.11
2023-03-29T12:59:07.488Z,25.12
2023-03-29T13:04:17.416Z,25.33
2023-03-29T13:09:30.867Z,25.31
2023-03-29T13:14:34.318Z,25.35
2023-03-29T13:19:53.814Z,25.22
2023-03-29T13:25:20.351Z,25.35
2023-03-29T13:30:22.254Z,25.26
2023-03-29T13:35:46.788Z,25.24
2023-03-29T13:40:51.775Z,25.44
2023-03-29T13:46:04.395Z,25.47
2023-03-29T13:51:18.196Z,25.33
2023-03-29T13:56:34.638Z,25.50
2023-03-29T14:01:43.400Z,25.60
2023-03-29T14:06:48.180Z,25.69
2023-03-29T14:11:49.564Z,25.71
2023-03-29T14:16:51.056Z,25.79
2023-03-29T14:21:53.049Z,25.80
2023-03-29T14:26:54.525Z,25.94
2023-03-29T14:31:56.136Z,25.89
2023-03-29T14:36:58.281Z,25.90
2023-03-29T14:41:59.728Z,26.22
2023-03-29T14:47:01.440Z,26.19
2023-03-29T14:52:03.239Z,26.13
2023-03-29T14:57:08.128Z,26.11
2023-03-29T15:02:29.653Z,26.07
2023-03-29T15:07:35.205Z,26.24
2023-03-29T15:12:36.600Z,26.04
2023-03-29T15:17:51.175Z,26.11
2023-03-29T15:23:08.349Z,26.37
2023-03-29T15:28:28.184Z,26.49
2023-03-29T15:33:35.061Z,26.79
2023-03-29T15:38:43.809Z,26.93
2023-03-29T15:43:46.490Z,26.99
2023-03-29T15:48:47.885Z,27.28
2023-03-29T15:53:49.328Z,27.51
2023-03-29T15:58:50.790Z,27.50
2023-03-29T16:03:52.450Z,27.64
2023-03-29T16:08:56.095Z,27.77
2023-03-29T16:13:58.590Z,27.78
2023-03-29T16:19:00.130Z,27.75
2023-03-29T16:24:01.651Z,27.90
2023-03-29T16:29:03.036Z,28.05
2023-03-29T16:34:05.020Z,28.12
2023-03-29T16:39:06.541Z,27.96
2023-03-29T16:44:07.932Z,28.11
2023-03-29T16:49:14.018Z,28.03
2023-03-29T16:54:16.974Z,28.09
2023-03-29T16:59:18.365Z,28.18
2023-03-29T17:04:19.769Z,28.21
2023-03-29T17:09:21.412Z,28.11
2023-03-29T17:14:22.789Z,28.24
2023-03-29T17:19:24.214Z,28.13
2023-03-29T17:24:25.622Z,28.07
2023-03-29T17:29:26.992Z,28.24
2023-03-29T17:34:28.989Z,28.20
2023-03-29T17:39:30.620Z,28.35
2023-03-29T17:44:33.098Z,28.28
2023-03-29T17:49:34.528Z,28.41
2023-03-29T17:54:36.081Z,28.33
2023-03-29T17:59:37.931Z,28.33
2023-03-29T18:04:39.334Z,28.18
2023-03-29T18:09:40.778Z,28.33
2023-03-29T18:14:42.147Z,28.33
2023-03-29T18:19:43.534Z,28.48
2023-03-29T18:24:46.341Z,28.34
2023-03-29T18:29:47.711Z,28.55
2023-03-29T18:34:49.078Z,28.44
2023-03-29T18:39:50.537Z,28.33
2023-03-29T18:44:52.128Z,28.42
2023-03-29T18:49:53.998Z,28.29
2023-03-29T18:54:55.393Z,28.28
2023-03-29T18:59:56.759Z,28.37
2023-03-29T19:04:58.165Z,28.38
2023-03-29T19:09:59.544Z,28.45
2023-03-29T19:15:01.018Z,28.40
2023-03-29T19:20:02.442Z,28.30
2023-03-29T19:25:04.663Z,28.41
2023-03-29T19:30:06.606Z,28.33
2023-03-29T19:35:09.443Z,28.37
2023-03-29T19:40:11.141Z,28.43
2023-03-29T19:45:12.519Z,28.44
2023-03-29T19:50:14.150Z,28.42
2023-03-29T19:55:15.594Z,28.37
2023-03-29T20:00:18.532Z,28.39
2023-03-29T20:05:20.197Z,28.35
2023-03-29T20:10:21.636Z,28.33
2023-03-29T20:15:25.374Z,28.33
2023-03-29T20:20:26.893Z,28.29
2023-03-29T20:25:28.642Z,28.31
2023-03-29T20:30:30.072Z,28.20
2023-03-29T20:35:31.552Z,28.18
2023-03-29T20:40:34.272Z,28.25
2023-03-29T20:45:49.849Z,28.14
2023-03-29T20:50:54.086Z,28.19
2023-03-29T20:55:55.467Z,28.10
2023-03-29T21:00:58.621Z,28.28
2023-03-29T21:06:02.092Z,28.13
2023-03-29T21:11:03.631Z,28.14
2023-03-29T21:16:05.601Z,28.05
2023-03-29T21:21:10.735Z,28.06
2023-03-29T21:26:12.402Z,28.10
2023-03-29T21:31:13.834Z,28.10
2023-03-29T21:36:15.220Z,28.03
2023-03-29T21:41:16.703Z,27.98
2023-03-29T21:46:18.108Z,27.83
2023-03-29T21:51:19.544Z,28.01
2023-03-29T21:56:22.233Z,28.07
2023-03-29T22:01:23.687Z,27.76
2023-03-29T22:06:25.429Z,27.84
2023-03-29T22:11:28.463Z,28.04
2023-03-29T22:16:31.206Z,27.95
2023-03-29T22:21:32.624Z,27.88
2023-03-29T22:26:34.023Z,27.79
2023-03-29T22:31:37.743Z,27.85
2023-03-29T22:36:39.148Z,27.91
2023-03-29T22:41:41.018Z,27.81
2023-03-29T22:46:42.406Z,27.85
2023-03-29T22:51:43.962Z,27.50
2023-03-29T22:56:45.447Z,27.72
2023-03-29T23:01:48.088Z,27.78
2023-03-29T23:06:49.524Z,27.84
2023-03-29T23:11:50.893Z,27.85
2023-03-29T23:16:52.322Z,27.81
2023-03-29T23:21:54.987Z,27.90
2023-03-29T23:26:57.424Z,27.67
2023-03-29T23:31:59.369Z,27.76
2023-03-29T23:37:00.765Z,27.83
2023-03-29T23:42:03.316Z,27.65
2023-03-29T23:47:06.000Z,27.92
2023-03-29T23:52:07.587Z,27.93
2023-03-29T23:57:10.633Z,27.92
